createdAt,value
2018-12-07T00:00:26.383Z,3.17
2018-12-07T00:02:56.453Z,3.26
2018-12-07T00:05:26.373Z,3.30
2018-12-07T00:07:57.103Z,3.30
2018-12-07T00:10:27.141Z,3.30
2018-12-07T00:12:57.107Z,3.32
2018-12-07T00:15:27.199Z,3.36
2018-12-07T00:17:57.169Z,3.35
2018-12-07T00:20:27.330Z,3.41
2018-12-07T00:22:57.345Z,3.50
2018-12-07T00:25:27.369Z,3.40
2018-12-07T00:27:57.349Z,3.45
2018-12-07T00:30:27.422Z,3.42
2018-12-07T00:32:57.388Z,3.45
2018-12-07T00:35:27.429Z,3.49
2018-12-07T00:37:57.322Z,3.52
2018-12-07T00:40:27.298Z,3.52
2018-12-07T00:42:57.368Z,3.57
2018-12-07T00:45:27.253Z,3.54
2018-12-07T00:47:57.608Z,3.57
2018-12-07T00:50:27.519Z,3.62
2018-12-07T00:52:57.529Z,3.59
2018-12-07T00:55:37.379Z,3.59
2018-12-07T00:58:07.398Z,3.64
2018-12-07T01:00:37.627Z,3.62
2018-12-07T01:03:07.527Z,3.55
2018-12-07T01:05:37.567Z,3.58
2018-12-07T01:08:07.461Z,3.62
2018-12-07T01:10:37.522Z,3.74
2018-12-07T01:13:07.467Z,3.67
2018-12-07T01:15:37.433Z,3.70
2018-12-07T01:18:07.618Z,3.68
2018-12-07T01:20:37.652Z,3.68
2018-12-07T01:23:07.657Z,3.73
2018-12-07T01:25:37.659Z,3.69
2018-12-07T01:28:07.711Z,3.69
2018-12-07T01:30:37.581Z,3.66
2018-12-07T01:33:07.579Z,3.65
2018-12-07T01:35:37.522Z,3.67
2018-12-07T01:38:07.538Z,3.65
2018-12-07T01:40:37.461Z,3.70
2018-12-07T01:43:07.401Z,3.65
2018-12-07T01:45:37.366Z,3.66
2018-12-07T01:48:07.407Z,3.64
2018-12-07T01:50:37.298Z,3.63
2018-12-07T01:53:07.321Z,3.63
2018-12-07T01:55:37.341Z,3.63
2018-12-07T01:58:07.333Z,3.63
2018-12-07T02:00:37.468Z,3.63
2018-12-07T02:03:07.468Z,3.72
2018-12-07T02:05:37.392Z,3.74
2018-12-07T02:08:07.347Z,3.76
2018-12-07T02:10:37.215Z,3.75
2018-12-07T02:13:07.097Z,3.77
2018-12-07T02:15:37.047Z,3.76
2018-12-07T02:18:06.993Z,3.76
2018-12-07T02:20:36.978Z,3.78
2018-12-07T02:23:07.141Z,3.79
2018-12-07T02:25:37.181Z,3.85
2018-12-07T02:28:07.216Z,3.83
2018-12-07T02:30:37.146Z,3.79
2018-12-07T02:33:07.202Z,3.78
2018-12-07T02:35:37.270Z,3.78
2018-12-07T02:38:07.289Z,3.71
2018-12-07T02:40:37.192Z,3.73
2018-12-07T02:43:07.463Z,3.66
2018-12-07T02:45:37.532Z,3.64
2018-12-07T02:48:07.507Z,3.61
2018-12-07T02:50:37.452Z,3.65
2018-12-07T02:53:07.368Z,3.62
2018-12-07T02:55:37.486Z,3.62
2018-12-07T02:58:08.418Z,3.67
2018-12-07T03:00:38.666Z,3.60
2018-12-07T03:03:09.281Z,3.58
2018-12-07T03:05:39.467Z,3.63
2018-12-07T03:08:09.611Z,3.64
2018-12-07T03:10:39.744Z,3.65
2018-12-07T03:13:09.751Z,3.70
2018-12-07T03:15:40.040Z,3.74
2018-12-07T03:21:03.141Z,3.90
2018-12-07T03:23:33.113Z,3.96
2018-12-07T03:26:03.082Z,4.04
2018-12-07T03:28:33.185Z,4.08
2018-12-07T03:31:03.083Z,4.20
2018-12-07T03:33:33.088Z,4.22
2018-12-07T03:36:03.022Z,4.25
2018-12-07T03:38:32.993Z,4.34
2018-12-07T03:41:02.911Z,4.37
2018-12-07T03:43:32.823Z,4.39
2018-12-07T03:46:02.731Z,4.56
2018-12-07T03:48:32.807Z,4.58
2018-12-07T03:51:02.795Z,4.58
2018-12-07T03:53:32.726Z,4.69
2018-12-07T03:56:02.791Z,4.69
2018-12-07T03:58:32.753Z,4.69
2018-12-07T04:01:02.831Z,4.73
2018-12-07T04:03:33.031Z,4.74
2018-12-07T04:06:03.121Z,4.75
2018-12-07T04:08:33.042Z,4.78
2018-12-07T04:11:03.211Z,4.83
2018-12-07T04:13:33.269Z,4.80
2018-12-07T04:16:03.370Z,4.81
2018-12-07T04:18:33.391Z,4.78
2018-12-07T04:21:03.481Z,4.76
2018-12-07T04:23:33.381Z,4.80
2018-12-07T04:26:03.273Z,4.78
2018-12-07T04:28:33.245Z,4.81
2018-12-07T04:31:03.260Z,4.83
2018-12-07T04:33:33.218Z,4.85
2018-12-07T04:36:07.374Z,4.87
2018-12-07T04:38:35.059Z,4.97
2018-12-07T04:41:04.961Z,4.93
2018-12-07T04:43:34.988Z,4.96
2018-12-07T04:46:05.097Z,4.95
2018-12-07T04:48:35.118Z,4.95
2018-12-07T04:51:05.114Z,5.02
2018-12-07T04:53:35.241Z,5.01
2018-12-07T04:56:05.354Z,5.09
2018-12-07T04:58:35.312Z,5.10
2018-12-07T05:01:05.298Z,5.12
2018-12-07T05:03:35.312Z,5.19
2018-12-07T05:06:05.331Z,5.19
2018-12-07T05:08:41.873Z,5.23
2018-12-07T05:11:11.809Z,5.21
2018-12-07T05:13:41.795Z,5.20
2018-12-07T05:16:11.797Z,5.21
2018-12-07T05:18:41.898Z,5.20
2018-12-07T05:21:11.883Z,5.26
2018-12-07T05:23:41.833Z,5.23
2018-12-07T05:26:11.791Z,5.24
2018-12-07T05:28:41.882Z,5.24
2018-12-07T05:31:11.933Z,5.18
2018-12-07T05:33:42.183Z,5.17
2018-12-07T05:36:12.165Z,5.19
2018-12-07T05:38:42.181Z,5.18
2018-12-07T05:41:12.214Z,5.22
2018-12-07T05:46:35.934Z,5.19
2018-12-07T05:49:05.993Z,5.18
2018-12-07T05:51:36.019Z,5.20
2018-12-07T05:54:12.562Z,5.20
2018-12-07T05:56:42.483Z,5.23
2018-12-07T05:59:12.488Z,5.22
2018-12-07T06:01:42.712Z,5.24
2018-12-07T06:04:12.748Z,5.25
2018-12-07T06:06:42.717Z,5.28
2018-12-07T06:09:12.762Z,5.32
2018-12-07T06:11:42.852Z,5.36
2018-12-07T06:14:12.803Z,5.35
2018-12-07T06:16:43.122Z,5.36
2018-12-07T06:19:13.137Z,5.39
2018-12-07T06:21:43.072Z,5.45
2018-12-07T06:24:13.123Z,5.49
2018-12-07T06:26:43.090Z,5.50
2018-12-07T06:29:13.718Z,5.53
2018-12-07T06:31:44.041Z,5.57
2018-12-07T06:34:14.228Z,5.58
2018-12-07T06:36:44.272Z,5.57
2018-12-07T06:39:14.691Z,5.58
2018-12-07T06:41:44.718Z,5.61
2018-12-07T06:44:14.691Z,5.63
2018-12-07T06:46:44.739Z,5.64
2018-12-07T06:49:15.273Z,5.67
2018-12-07T06:51:45.486Z,5.72
2018-12-07T06:54:15.584Z,5.74
2018-12-07T06:56:45.620Z,5.75
2018-12-07T06:59:15.649Z,5.78
2018-12-07T07:01:46.598Z,5.77
2018-12-07T07:04:16.693Z,5.76
2018-12-07T07:06:46.660Z,5.77
2018-12-07T07:09:16.623Z,5.76
2018-12-07T07:11:46.600Z,5.77
2018-12-07T07:14:16.529Z,5.79
2018-12-07T07:16:46.570Z,5.85
2018-12-07T07:19:16.508Z,5.84
2018-12-07T07:21:46.707Z,5.83
2018-12-07T07:24:16.611Z,5.85
2018-12-07T07:26:46.617Z,5.88
2018-12-07T07:29:16.691Z,5.92
2018-12-07T07:31:46.767Z,5.92
2018-12-07T07:34:16.631Z,5.94
2018-12-07T07:36:46.595Z,5.99
2018-12-07T07:39:16.785Z,5.99
2018-12-07T07:41:46.912Z,6.03
2018-12-07T07:44:16.798Z,6.06
2018-12-07T07:46:47.022Z,6.08
2018-12-07T07:49:17.081Z,6.05
2018-12-07T07:51:47.595Z,6.09
2018-12-07T07:54:24.166Z,6.10
2018-12-07T07:56:54.385Z,6.11
2018-12-07T07:59:24.783Z,6.20
2018-12-07T08:01:54.896Z,6.19
2018-12-07T08:04:25.381Z,6.21
2018-12-07T08:06:55.375Z,6.20
2018-12-07T08:09:25.688Z,6.17
2018-12-07T08:11:55.528Z,6.21
2018-12-07T08:14:25.589Z,6.29
2018-12-07T08:16:55.649Z,6.36
2018-12-07T08:19:25.868Z,6.39
2018-12-07T08:21:56.116Z,6.40
2018-12-07T08:24:26.144Z,6.48
2018-12-07T08:26:56.000Z,6.51
2018-12-07T08:29:26.275Z,6.49
2018-12-07T08:31:56.240Z,6.48
2018-12-07T08:34:26.251Z,6.51
2018-12-07T08:36:56.374Z,6.44
2018-12-07T08:39:26.421Z,6.56
2018-12-07T08:41:56.499Z,6.47
2018-12-07T08:44:26.600Z,6.56
2018-12-07T08:46:56.599Z,6.60
2018-12-07T08:49:30.519Z,6.60
2018-12-07T08:52:00.559Z,6.68
2018-12-07T08:54:30.485Z,6.74
2018-12-07T08:57:00.446Z,6.74
2018-12-07T08:59:30.385Z,6.69
2018-12-07T09:02:00.292Z,6.67
2018-12-07T09:04:30.095Z,6.68
2018-12-07T09:07:00.040Z,6.69
2018-12-07T09:09:29.869Z,6.77
2018-12-07T09:11:59.796Z,6.76
2018-12-07T09:14:29.683Z,6.83
2018-12-07T09:16:59.493Z,6.96
2018-12-07T09:19:29.507Z,6.93
2018-12-07T09:21:59.337Z,6.95
2018-12-07T09:24:30.160Z,7.03
2018-12-07T09:26:59.960Z,7.01
2018-12-07T09:29:29.873Z,7.10
2018-12-07T09:31:59.729Z,7.12
2018-12-07T09:34:29.693Z,7.16
2018-12-07T09:36:59.560Z,7.09
2018-12-07T09:39:29.449Z,7.06
2018-12-07T09:41:59.340Z,7.08
2018-12-07T09:44:29.184Z,7.16
2018-12-07T09:46:59.155Z,7.20
2018-12-07T09:49:29.072Z,7.15
2018-12-07T09:51:59.096Z,7.19
2018-12-07T09:54:29.286Z,7.25
2018-12-07T09:56:59.420Z,7.34
2018-12-07T09:59:29.298Z,7.54
2018-12-07T10:01:59.141Z,7.49
2018-12-07T10:04:29.165Z,7.50
2018-12-07T10:06:59.010Z,7.48
2018-12-07T10:09:28.993Z,7.49
2018-12-07T10:11:59.006Z,7.66
2018-12-07T10:14:29.020Z,7.72
2018-12-07T10:16:58.854Z,7.75
2018-12-07T10:19:28.744Z,7.89
2018-12-07T10:21:58.626Z,7.88
2018-12-07T10:24:28.670Z,7.88
2018-12-07T10:27:06.880Z,7.91
2018-12-07T10:29:36.895Z,7.96
2018-12-07T10:32:06.810Z,7.93
2018-12-07T10:34:36.723Z,7.95
2018-12-07T10:37:06.569Z,8.01
2018-12-07T10:39:36.472Z,8.04
2018-12-07T10:42:06.456Z,8.05
2018-12-07T10:44:36.476Z,8.07
2018-12-07T10:47:06.313Z,8.05
2018-12-07T10:49:36.257Z,8.06
2018-12-07T10:52:06.101Z,8.08
2018-12-07T10:54:36.130Z,8.14
2018-12-07T10:57:05.974Z,8.21
2018-12-07T10:59:35.821Z,8.35
2018-12-07T11:02:09.647Z,8.38
2018-12-07T11:04:43.469Z,8.43
2018-12-07T11:07:17.256Z,8.35
2018-12-07T11:09:51.092Z,8.51
2018-12-07T11:12:24.863Z,8.62
2018-12-07T11:14:58.729Z,8.56
2018-12-07T11:17:32.531Z,8.62
2018-12-07T11:20:06.589Z,8.58
2018-12-07T11:22:40.346Z,8.58
2018-12-07T11:25:14.209Z,8.63
2018-12-07T11:27:48.159Z,8.62
2018-12-07T11:30:21.990Z,8.66
2018-12-07T11:32:55.798Z,8.60
2018-12-07T11:35:29.880Z,8.55
2018-12-07T11:37:59.781Z,8.59
2018-12-07T11:40:29.858Z,8.60
2018-12-07T11:42:59.977Z,8.54
2018-12-07T11:45:29.872Z,8.58
2018-12-07T11:47:59.719Z,8.51
2018-12-07T11:50:29.619Z,8.58
2018-12-07T11:53:00.252Z,8.61
2018-12-07T11:55:30.103Z,8.54
2018-12-07T11:58:00.067Z,8.60
2018-12-07T12:00:29.987Z,8.51
2018-12-07T12:02:59.898Z,8.48
2018-12-07T12:05:29.906Z,8.40
2018-12-07T12:07:59.754Z,8.50
2018-12-07T12:10:29.666Z,8.50
2018-12-07T12:12:59.646Z,8.47
2018-12-07T12:15:29.665Z,8.42
2018-12-07T12:17:59.678Z,8.40
2018-12-07T12:20:29.591Z,8.41
2018-12-07T12:22:59.417Z,8.44
2018-12-07T12:25:29.316Z,8.46
2018-12-07T12:27:59.222Z,8.42
2018-12-07T12:30:29.247Z,8.47
2018-12-07T12:32:59.083Z,8.52
2018-12-07T12:35:29.313Z,8.51
2018-12-07T12:37:59.050Z,8.57
2018-12-07T12:40:29.000Z,8.64
2018-12-07T12:42:58.913Z,8.67
2018-12-07T12:45:28.803Z,8.73
2018-12-07T12:47:58.649Z,8.68
2018-12-07T12:50:32.527Z,8.67
2018-12-07T12:53:02.458Z,8.69
2018-12-07T12:55:32.533Z,8.69
2018-12-07T12:58:02.363Z,8.68
2018-12-07T13:00:32.211Z,8.70
2018-12-07T13:03:02.065Z,8.70
2018-12-07T13:05:32.021Z,8.69
2018-12-07T13:08:01.932Z,8.69
2018-12-07T13:10:31.882Z,8.69
2018-12-07T13:13:01.848Z,8.66
2018-12-07T13:15:31.690Z,8.68
2018-12-07T13:18:01.602Z,8.69
2018-12-07T13:20:31.411Z,8.69
2018-12-07T13:23:01.248Z,8.68
2018-12-07T13:25:31.235Z,8.70
2018-12-07T13:28:01.191Z,8.70
2018-12-07T13:30:31.163Z,8.69
2018-12-07T13:33:00.946Z,8.71
2018-12-07T13:35:31.298Z,8.75
2018-12-07T13:38:01.507Z,8.76
2018-12-07T13:40:31.703Z,8.76
2018-12-07T13:43:02.074Z,8.80
2018-12-07T13:45:31.993Z,8.79
2018-12-07T13:48:02.127Z,8.82
2018-12-07T13:50:36.219Z,8.79
2018-12-07T13:53:06.191Z,8.81
2018-12-07T13:55:36.068Z,8.80
2018-12-07T13:58:06.307Z,8.84
2018-12-07T14:00:36.475Z,8.80
2018-12-07T14:03:06.362Z,8.78
2018-12-07T14:05:36.437Z,8.79
2018-12-07T14:08:06.427Z,8.81
2018-12-07T14:10:37.005Z,8.81
2018-12-07T14:13:07.102Z,8.85
2018-12-07T14:15:36.918Z,8.88
2018-12-07T14:18:07.207Z,8.82
2018-12-07T14:20:37.362Z,8.80
2018-12-07T14:23:07.433Z,8.79
2018-12-07T14:25:37.722Z,8.80
2018-12-07T14:28:07.713Z,8.79
2018-12-07T14:30:37.624Z,8.77
2018-12-07T14:33:07.605Z,8.73
2018-12-07T14:35:38.013Z,8.75
2018-12-07T14:38:08.172Z,8.76
2018-12-07T14:40:38.015Z,8.76
2018-12-07T14:43:07.960Z,8.77
2018-12-07T14:45:38.322Z,8.79
2018-12-07T14:48:08.397Z,8.83
2018-12-07T14:50:38.587Z,8.81
2018-12-07T14:53:08.609Z,8.82
2018-12-07T14:55:38.824Z,8.78
2018-12-07T14:58:08.884Z,8.74
2018-12-07T15:00:38.884Z,8.80
2018-12-07T15:03:09.018Z,8.75
2018-12-07T15:05:39.048Z,8.76
2018-12-07T15:08:09.165Z,8.76
2018-12-07T15:10:39.044Z,8.81
2018-12-07T15:13:08.950Z,8.78
2018-12-07T15:15:39.134Z,8.77
2018-12-07T15:18:09.182Z,8.74
2018-12-07T15:20:39.106Z,8.72
2018-12-07T15:23:09.097Z,8.69
2018-12-07T15:25:39.124Z,8.71
2018-12-07T15:28:09.354Z,8.69
2018-12-07T15:30:39.775Z,8.67
2018-12-07T15:33:10.237Z,8.64
2018-12-07T15:35:40.794Z,8.67
2018-12-07T15:38:10.880Z,8.72
2018-12-07T15:40:41.233Z,8.69
2018-12-07T15:43:11.324Z,8.69
2018-12-07T15:45:41.416Z,8.65
2018-12-07T15:48:11.639Z,8.63
2018-12-07T15:50:41.807Z,8.64
2018-12-07T15:53:12.030Z,8.71
2018-12-07T15:55:41.913Z,8.71
2018-12-07T15:58:11.906Z,8.84
2018-12-07T16:00:42.101Z,8.83
2018-12-07T16:03:12.780Z,8.84
2018-12-07T16:05:43.238Z,8.83
2018-12-07T16:08:13.797Z,8.80
2018-12-07T16:10:49.064Z,8.77
2018-12-07T16:13:15.817Z,8.76
2018-12-07T16:15:45.824Z,8.75
2018-12-07T16:18:16.301Z,8.81
2018-12-07T16:20:49.621Z,8.76
2018-12-07T16:23:20.090Z,8.74
2018-12-07T16:25:50.061Z,8.72
2018-12-07T16:28:21.022Z,8.69
2018-12-07T16:30:51.108Z,8.68
2018-12-07T16:33:21.170Z,8.65
2018-12-07T16:35:51.347Z,8.70
2018-12-07T16:38:21.544Z,8.65
2018-12-07T16:40:51.688Z,8.65
2018-12-07T16:43:21.825Z,8.64
2018-12-07T16:45:52.093Z,8.63
2018-12-07T16:48:22.321Z,8.56
2018-12-07T16:50:53.556Z,8.53
2018-12-07T16:53:23.677Z,8.49
2018-12-07T16:55:53.906Z,8.43
2018-12-07T16:58:24.438Z,8.36
2018-12-07T17:00:54.597Z,8.24
2018-12-07T17:03:24.435Z,8.25
2018-12-07T17:05:54.768Z,8.17
2018-12-07T17:08:24.705Z,8.12
2018-12-07T17:10:54.626Z,8.11
2018-12-07T17:13:24.789Z,8.16
2018-12-07T17:15:54.852Z,8.13
2018-12-07T17:18:24.806Z,8.13
2018-12-07T17:20:54.763Z,8.14
2018-12-07T17:23:24.812Z,8.09
2018-12-07T17:25:55.057Z,8.13
2018-12-07T17:28:25.327Z,8.16
2018-12-07T17:30:55.565Z,8.12
2018-12-07T17:33:25.825Z,8.12
2018-12-07T17:35:55.672Z,8.11
2018-12-07T17:38:26.102Z,8.15
2018-12-07T17:40:56.091Z,8.16
2018-12-07T17:43:26.165Z,8.18
2018-12-07T17:45:56.095Z,8.07
2018-12-07T17:48:26.336Z,8.16
2018-12-07T17:50:57.564Z,8.08
2018-12-07T17:53:28.471Z,8.10
2018-12-07T17:55:58.561Z,8.06
2018-12-07T17:58:28.583Z,7.95
2018-12-07T18:00:58.560Z,7.98
2018-12-07T18:03:28.601Z,7.97
2018-12-07T18:05:58.429Z,7.96
2018-12-07T18:08:28.485Z,7.83
2018-12-07T18:10:58.433Z,7.80
2018-12-07T18:13:28.590Z,7.77
2018-12-07T18:15:58.662Z,7.74
2018-12-07T18:18:28.694Z,7.71
2018-12-07T18:20:59.009Z,7.75
2018-12-07T18:23:29.245Z,7.70
2018-12-07T18:25:59.513Z,7.77
2018-12-07T18:28:31.135Z,7.87
2018-12-07T18:31:01.315Z,7.88
2018-12-07T18:33:31.422Z,7.98
2018-12-07T18:36:01.569Z,8.03
2018-12-07T18:38:31.803Z,8.00
2018-12-07T18:41:04.781Z,8.05
2018-12-07T18:43:37.261Z,8.12
2018-12-07T18:46:07.609Z,8.15
2018-12-07T18:48:44.365Z,8.18
2018-12-07T18:51:15.045Z,8.17
2018-12-07T18:53:45.255Z,8.18
2018-12-07T18:56:18.808Z,8.25
2018-12-07T18:58:52.128Z,8.29
2018-12-07T19:01:25.517Z,8.27
2018-12-07T19:03:58.689Z,8.28
2018-12-07T19:06:28.642Z,8.26
2018-12-07T19:09:00.141Z,8.34
2018-12-07T19:11:30.195Z,8.35
2018-12-07T19:14:05.683Z,8.34
2018-12-07T19:16:36.386Z,8.38
2018-12-07T19:19:06.482Z,8.39
2018-12-07T19:21:36.609Z,8.38
2018-12-07T19:24:09.586Z,8.37
2018-12-07T19:26:40.376Z,8.37
2018-12-07T19:29:10.363Z,8.38
2018-12-07T19:31:40.576Z,8.39
2018-12-07T19:34:11.256Z,8.37
2018-12-07T19:36:42.383Z,8.37
2018-12-07T19:39:20.132Z,8.40
2018-12-07T19:41:50.110Z,8.39
2018-12-07T19:44:20.163Z,8.39
2018-12-07T19:46:57.545Z,8.40
2018-12-07T19:49:29.214Z,8.41
2018-12-07T19:51:59.883Z,8.40
2018-12-07T19:54:30.062Z,8.45
2018-12-07T19:57:03.520Z,8.45
2018-12-07T19:59:39.627Z,8.41
2018-12-07T20:02:11.051Z,8.43
2018-12-07T20:04:42.469Z,8.39
2018-12-07T20:07:12.488Z,8.35
2018-12-07T20:09:42.478Z,8.33
2018-12-07T20:12:15.742Z,8.44
2018-12-07T20:14:45.732Z,8.46
2018-12-07T20:17:19.092Z,8.51
2018-12-07T20:19:49.407Z,8.52
2018-12-07T20:22:21.557Z,8.50
2018-12-07T20:24:52.560Z,8.48
2018-12-07T20:27:23.961Z,8.49
2018-12-07T20:29:58.150Z,8.47
2018-12-07T20:32:28.916Z,8.42
2018-12-07T20:35:00.178Z,8.41
2018-12-07T20:40:09.413Z,8.36
2018-12-07T20:42:39.378Z,8.35
2018-12-07T20:45:10.935Z,8.34
2018-12-07T20:47:44.391Z,8.31
2018-12-07T20:50:18.182Z,8.34
2018-12-07T20:52:49.935Z,8.28
2018-12-07T20:55:22.999Z,8.24
2018-12-07T20:57:54.138Z,8.22
2018-12-07T21:00:24.113Z,8.21
2018-12-07T21:02:59.200Z,8.24
2018-12-07T21:08:56.992Z,8.21
2018-12-07T21:11:39.842Z,8.21
2018-12-07T21:14:23.015Z,8.29
2018-12-07T21:20:04.836Z,8.30
2018-12-07T21:22:38.029Z,8.31
2018-12-07T21:25:08.302Z,8.34
2018-12-07T21:27:41.691Z,8.43
2018-12-07T21:33:09.064Z,8.39
2018-12-07T21:35:54.753Z,8.44
2018-12-07T21:38:25.256Z,8.40
2018-12-07T21:40:56.422Z,8.39
2018-12-07T21:43:26.683Z,8.62
2018-12-07T21:45:56.842Z,8.52
2018-12-07T21:48:30.430Z,8.38
2018-12-07T21:51:13.960Z,8.38
2018-12-07T21:53:44.221Z,8.34
2018-12-07T21:56:15.851Z,8.31
2018-12-07T21:58:49.369Z,8.33
2018-12-07T22:01:19.818Z,8.35
2018-12-07T22:03:49.991Z,8.32
2018-12-07T22:06:20.095Z,8.39
2018-12-07T22:08:50.612Z,8.40
2018-12-07T22:11:21.081Z,8.36
2018-12-07T22:13:51.010Z,8.36
2018-12-07T22:16:21.302Z,8.32
2018-12-07T22:18:51.544Z,8.36
2018-12-07T22:21:21.953Z,8.29
2018-12-07T22:23:52.064Z,8.25
2018-12-07T22:26:22.079Z,8.25
2018-12-07T22:28:52.407Z,8.27
2018-12-07T22:31:22.545Z,8.24
2018-12-07T22:33:52.808Z,8.24
2018-12-07T22:36:23.029Z,8.28
2018-12-07T22:38:53.222Z,8.31
2018-12-07T22:41:23.209Z,8.32
2018-12-07T22:44:00.141Z,8.31
2018-12-07T22:46:30.121Z,8.38
2018-12-07T22:49:00.232Z,8.36
2018-12-07T22:51:30.841Z,8.39
2018-12-07T22:54:00.848Z,8.37
2018-12-07T22:56:30.858Z,8.35
2018-12-07T22:59:00.882Z,8.32
2018-12-07T23:01:31.008Z,8.35
2018-12-07T23:04:00.925Z,8.33
2018-12-07T23:06:30.893Z,8.35
2018-12-07T23:09:00.857Z,8.35
2018-12-07T23:11:30.872Z,8.34
2018-12-07T23:14:00.901Z,8.33
2018-12-07T23:16:31.061Z,8.37
2018-12-07T23:19:07.667Z,8.36
2018-12-07T23:21:37.779Z,8.38
2018-12-07T23:24:07.831Z,8.38
2018-12-07T23:26:37.918Z,8.35
2018-12-07T23:31:59.869Z,8.38
2018-12-07T23:34:29.875Z,8.35
2018-12-07T23:36:59.887Z,8.31
2018-12-07T23:39:29.838Z,8.35
2018-12-07T23:41:59.918Z,8.25
2018-12-07T23:44:29.931Z,8.25
2018-12-07T23:47:00.317Z,8.20
2018-12-07T23:49:30.378Z,8.27
2018-12-07T23:52:00.355Z,8.25
2018-12-07T23:54:30.420Z,8.26
2018-12-07T23:57:00.528Z,8.23
2018-12-07T23:59:30.457Z,8.24
